LDA9064 LCLK-LOWW
Flight info
| Callsign | LDA9064 |
|---|---|
| Flight time | N/A |
| Altitude | 36000 |
| Route | BONEK DCT VADUS DCT DASNI DCT TOMBI UA16 AYT UN135 IMR UN127 RIKSO DCT LMO DCT EVIVI L863 OKANA DCT PARAK DCT BALUX DCT TORNO DCT NATEX NATEX2W |
| Aircraft | B738/M-SDE2E3FGHIRWXY/LB1 |
Departure
| Time | N/A |
|---|---|
| Airport | Larnaca International Airport (LCLK) |
Arrival
| Time | 2026-05-01 07:44 |
|---|---|
| Airport | Vienna International Airport (LOWW) |
| Time | Latitude | Longitude | Altitude | Speed | Heading |
|---|---|---|---|---|---|
| 2026-05-01 07:23 | 47.60040 | 18.20643 | 28515 ft | 495 kts | 295° |
| 2026-05-01 07:23 | 47.62070 | 18.10940 | 27538 ft | 496 kts | 295° |
| 2026-05-01 07:24 | 47.63102 | 18.06038 | 27040 ft | 497 kts | 295° |
| 2026-05-01 07:24 | 47.64135 | 18.01127 | 26545 ft | 498 kts | 295° |
| 2026-05-01 07:24 | 47.65166 | 17.96207 | 26040 ft | 500 kts | 295° |
| 2026-05-01 07:24 | 47.66196 | 17.91276 | 25546 ft | 500 kts | 294° |
| 2026-05-01 07:25 | 47.67223 | 17.86340 | 25046 ft | 500 kts | 294° |
| 2026-05-01 07:25 | 47.68242 | 17.81416 | 24545 ft | 497 kts | 294° |
| 2026-05-01 07:25 | 47.69238 | 17.76590 | 24052 ft | 492 kts | 294° |
| 2026-05-01 07:25 | 47.70230 | 17.71766 | 23539 ft | 483 kts | 294° |
| 2026-05-01 07:26 | 47.71207 | 17.67017 | 23042 ft | 478 kts | 294° |
| 2026-05-01 07:26 | 47.72176 | 17.62316 | 22540 ft | 474 kts | 294° |
| 2026-05-01 07:26 | 47.73136 | 17.57647 | 22046 ft | 470 kts | 293° |
| 2026-05-01 07:26 | 47.74083 | 17.53010 | 21545 ft | 467 kts | 292° |
| 2026-05-01 07:27 | 47.74679 | 17.48308 | 21019 ft | 475 kts | 276° |
| 2026-05-01 07:27 | 47.74397 | 17.43397 | 20555 ft | 476 kts | 266° |
| 2026-05-01 07:27 | 47.73962 | 17.38543 | 20055 ft | 472 kts | 266° |
| 2026-05-01 07:27 | 47.73561 | 17.33715 | 19553 ft | 466 kts | 267° |
| 2026-05-01 07:28 | 47.73198 | 17.28936 | 19050 ft | 461 kts | 268° |
| 2026-05-01 07:28 | 47.72862 | 17.24224 | 18549 ft | 456 kts | 268° |
| 2026-05-01 07:28 | 47.72530 | 17.19567 | 18048 ft | 451 kts | 268° |
| 2026-05-01 07:28 | 47.72350 | 17.14947 | 17524 ft | 441 kts | 278° |
| 2026-05-01 07:29 | 47.73061 | 17.10627 | 17029 ft | 424 kts | 299° |
| 2026-05-01 07:29 | 47.74524 | 17.06996 | 16543 ft | 408 kts | 315° |
| 2026-05-01 07:29 | 47.76490 | 17.04042 | 16054 ft | 396 kts | 326° |
| 2026-05-01 07:29 | 47.78761 | 17.01832 | 15542 ft | 384 kts | 340° |
| 2026-05-01 07:30 | 47.81238 | 17.00478 | 15063 ft | 376 kts | 348° |
| 2026-05-01 07:30 | 47.83748 | 16.99353 | 14555 ft | 374 kts | 348° |
| 2026-05-01 07:30 | 47.86226 | 16.98220 | 14056 ft | 372 kts | 347° |
| 2026-05-01 07:30 | 47.88691 | 16.97063 | 13551 ft | 370 kts | 346° |
| 2026-05-01 07:31 | 47.90313 | 16.96286 | 13232 ft | 369 kts | 346° |
| 2026-05-01 07:31 | 47.95693 | 16.88485 | 11687 ft | 373 kts | 290° |
| 2026-05-01 07:32 | 47.95385 | 16.79952 | 10502 ft | 355 kts | 242° |
| 2026-05-01 07:32 | 47.93749 | 16.77293 | 10008 ft | 346 kts | 212° |
| 2026-05-01 07:33 | 47.90011 | 16.76344 | 9156 ft | 323 kts | 161° |
| 2026-05-01 07:33 | 47.88145 | 16.77969 | 8657 ft | 307 kts | 129° |
| 2026-05-01 07:33 | 47.85134 | 16.82042 | 7663 ft | 299 kts | 161° |
| 2026-05-01 07:34 | 47.83127 | 16.82777 | 7185 ft | 295 kts | 164° |
| 2026-05-01 07:34 | 47.79218 | 16.84296 | 6186 ft | 288 kts | 163° |
| 2026-05-01 07:34 | 47.77264 | 16.84987 | 5667 ft | 287 kts | 173° |
| 2026-05-01 07:35 | 47.75301 | 16.84630 | 5163 ft | 287 kts | 201° |
| 2026-05-01 07:35 | 47.73635 | 16.82991 | 4680 ft | 291 kts | 228° |
| 2026-05-01 07:35 | 47.72618 | 16.80422 | 4203 ft | 291 kts | 255° |
| 2026-05-01 07:35 | 47.72502 | 16.77497 | 3989 ft | 279 kts | 285° |
| 2026-05-01 07:36 | 47.73362 | 16.75121 | 3984 ft | 258 kts | 319° |
| 2026-05-01 07:36 | 47.74831 | 16.73750 | 3982 ft | 241 kts | 334° |
| 2026-05-01 07:36 | 47.76319 | 16.72788 | 3994 ft | 224 kts | 345° |
| 2026-05-01 07:36 | 47.77822 | 16.72215 | 3998 ft | 221 kts | 347° |
| 2026-05-01 07:37 | 47.80781 | 16.71010 | 3994 ft | 221 kts | 346° |
| 2026-05-01 07:37 | 47.82257 | 16.70382 | 3987 ft | 220 kts | 345° |
| 2026-05-01 07:37 | 47.83724 | 16.69761 | 3993 ft | 219 kts | 345° |
| 2026-05-01 07:38 | 47.85192 | 16.69142 | 3991 ft | 220 kts | 346° |
| 2026-05-01 07:38 | 47.86658 | 16.68521 | 4005 ft | 221 kts | 346° |
| 2026-05-01 07:38 | 47.89499 | 16.67318 | 3981 ft | 193 kts | 346° |
| 2026-05-01 07:39 | 47.90726 | 16.66801 | 3974 ft | 174 kts | 346° |
| 2026-05-01 07:39 | 47.91828 | 16.66329 | 3976 ft | 162 kts | 346° |
| 2026-05-01 07:39 | 47.94014 | 16.65410 | 3611 ft | 161 kts | 346° |
| 2026-05-01 07:40 | 47.95087 | 16.64955 | 3397 ft | 159 kts | 346° |
| 2026-05-01 07:40 | 47.96140 | 16.64512 | 3189 ft | 157 kts | 346° |
| 2026-05-01 07:40 | 47.97188 | 16.64070 | 2986 ft | 157 kts | 346° |
| 2026-05-01 07:40 | 47.98241 | 16.63624 | 2770 ft | 159 kts | 347° |
| 2026-05-01 07:41 | 47.99337 | 16.63163 | 2560 ft | 169 kts | 346° |
| 2026-05-01 07:41 | 48.00442 | 16.62694 | 2348 ft | 157 kts | 346° |
| 2026-05-01 07:41 | 48.02425 | 16.61856 | 1951 ft | 143 kts | 344° |
| 2026-05-01 07:42 | 48.03338 | 16.61469 | 1748 ft | 133 kts | 344° |
| 2026-05-01 07:42 | 48.04220 | 16.61096 | 1591 ft | 132 kts | 344° |
| 2026-05-01 07:42 | 48.05111 | 16.60720 | 1422 ft | 133 kts | 344° |
| 2026-05-01 07:42 | 48.05989 | 16.60348 | 1262 ft | 132 kts | 344° |
| 2026-05-01 07:43 | 48.06881 | 16.59973 | 1080 ft | 132 kts | 344° |
| 2026-05-01 07:43 | 48.07769 | 16.59601 | 897 ft | 133 kts | 344° |
| 2026-05-01 07:43 | 48.09538 | 16.58849 | 616 ft | 131 kts | 343° |
| 2026-05-01 07:44 | 48.10646 | 16.58378 | 610 ft | 53 kts | 344° |
| 2026-05-01 07:44 | 48.10998 | 16.58163 | 619 ft | 14 kts | 309° |
| 2026-05-01 07:45 | 48.11050 | 16.58041 | 615 ft | 14 kts | 297° |
| 2026-05-01 07:45 | 48.11091 | 16.57918 | 610 ft | 13 kts | 295° |
| 2026-05-01 07:45 | 48.11132 | 16.57791 | 613 ft | 15 kts | 295° |
| 2026-05-01 07:45 | 48.11179 | 16.57644 | 622 ft | 17 kts | 296° |
| 2026-05-01 07:46 | 48.11234 | 16.57478 | 612 ft | 19 kts | 296° |
| 2026-05-01 07:46 | 48.11295 | 16.57293 | 620 ft | 21 kts | 296° |
| 2026-05-01 07:46 | 48.11418 | 16.56913 | 613 ft | 12 kts | 296° |
| 2026-05-01 07:47 | 48.11491 | 16.56890 | 618 ft | 12 kts | 23° |
| 2026-05-01 07:47 | 48.11568 | 16.56908 | 620 ft | 12 kts | 336° |
| 2026-05-01 07:47 | 48.11610 | 16.56820 | 608 ft | 3 kts | 296° |
| 2026-05-01 07:47 | 48.11629 | 16.56804 | 610 ft | 4 kts | 2° |
| 2026-05-01 07:48 | 48.11689 | 16.56844 | 608 ft | 0 kts | 26° |